Time,TemperatureF,DewpointF,PressureIn,WindDirection,WindDirectionDegrees,WindSpeedMPH,WindSpeedGustMPH,Humidity,HourlyPrecipIn,Conditions,Clouds,dailyrainin,SoftwareType,DateUTC
2013-04-06 00:02:00,47.0,37.0,-100.00,SE,135,14.0,19.0,66,0.00,,,-99.99,,2013-04-06 05:02:00,
2013-04-06 00:13:00,47.0,37.0,-100.00,SE,140,13.0,17.0,67,0.00,,,-99.99,,2013-04-06 05:13:00,
2013-04-06 00:22:00,47.0,37.0,-100.00,SE,145,14.0,17.0,68,0.00,,,-99.99,,2013-04-06 05:22:00,
2013-04-06 00:32:00,47.0,37.0,-100.00,SE,145,14.0,17.0,69,0.00,,,-99.99,,2013-04-06 05:32:00,
2013-04-06 00:42:00,46.0,37.0,-100.00,SE,145,13.0,17.0,71,0.00,,,-99.99,,2013-04-06 05:42:00,
2013-04-06 00:51:00,46.0,38.0,-100.00,SE,145,12.0,14.0,73,0.00,,,-99.99,,2013-04-06 05:51:00,
2013-04-06 01:02:00,46.0,38.0,-100.00,SE,145,12.0,14.0,73,0.00,,,-99.99,,2013-04-06 06:02:00,
2013-04-06 01:12:00,46.0,39.0,-100.00,SE,145,14.0,16.0,76,0.00,,,-99.99,,2013-04-06 06:12:00,
2013-04-06 01:22:00,46.0,39.0,-100.00,SE,145,14.0,16.0,76,0.00,,,-99.99,,2013-04-06 06:22:00,
2013-04-06 01:32:00,46.0,39.0,-100.00,SE,145,14.0,16.0,76,0.00,,,-99.99,,2013-04-06 06:32:00,
2013-04-06 01:42:00,46.0,40.0,-100.00,SE,145,14.0,16.0,77,0.00,,,-99.99,,2013-04-06 06:42:00,
2013-04-06 01:52:00,46.0,40.0,-100.00,SE,145,13.0,17.0,78,0.00,,,-99.99,,2013-04-06 06:52:00,
2013-04-06 02:03:00,46.0,40.0,-100.00,SSE,150,13.0,14.0,79,0.00,,,-99.99,,2013-04-06 07:03:00,
2013-04-06 02:12:00,46.0,40.0,-100.00,SSE,155,13.0,16.0,79,0.00,,,-99.99,,2013-04-06 07:12:00,
2013-04-06 02:22:00,46.0,40.0,-100.00,SSE,155,13.0,16.0,79,0.00,,,-99.99,,2013-04-06 07:22:00,
2013-04-06 02:33:00,46.0,41.0,-100.00,SSE,150,13.0,16.0,80,0.00,,,-99.99,,2013-04-06 07:33:00,
2013-04-06 02:52:00,47.0,41.0,-100.00,SSE,155,15.0,18.0,81,0.00,,,-99.99,,2013-04-06 07:52:00,
2013-04-06 03:02:00,47.0,41.0,-100.00,SSE,155,15.0,18.0,81,0.00,,,-99.99,,2013-04-06 08:02:00,
2013-04-06 03:12:00,47.0,41.0,-100.00,SSE,155,15.0,18.0,81,0.00,,,-99.99,,2013-04-06 08:12:00,
2013-04-06 03:22:00,47.0,41.0,-100.00,SSE,155,14.0,18.0,81,0.00,,,-99.99,,2013-04-06 08:22:00,
2013-04-06 03:32:00,47.0,41.0,-100.00,SSE,160,14.0,16.0,81,0.00,,,-99.99,,2013-04-06 08:32:00,
2013-04-06 03:42:00,47.0,41.0,-100.00,SSE,160,14.0,17.0,81,0.00,,,-99.99,,2013-04-06 08:42:00,
2013-04-06 03:52:00,47.0,41.0,-100.00,SSE,160,14.0,17.0,81,0.00,,,-99.99,,2013-04-06 08:52:00,
2013-04-06 04:02:00,47.0,42.0,-100.00,SSE,155,13.0,16.0,82,0.00,,,-99.99,,2013-04-06 09:02:00,
2013-04-06 04:12:00,47.0,42.0,-100.00,SSE,155,15.0,17.0,82,0.00,,,-99.99,,2013-04-06 09:12:00,
2013-04-06 04:22:00,48.0,42.0,-100.00,SSE,165,18.0,26.0,79,0.00,,,-99.99,,2013-04-06 09:22:00,
2013-04-06 04:33:00,48.0,42.0,-100.00,SSE,165,18.0,26.0,79,0.00,,,-99.99,,2013-04-06 09:33:00,
2013-04-06 04:43:00,48.0,42.0,-100.00,SSE,165,18.0,26.0,79,0.00,,,-99.99,,2013-04-06 09:43:00,
2013-04-06 04:52:00,48.0,42.0,-100.00,SSE,165,18.0,26.0,79,0.00,,,-99.99,,2013-04-06 09:52:00,
2013-04-06 05:03:00,49.0,42.0,-100.00,South,175,17.0,21.0,76,0.00,,,-99.99,,2013-04-06 10:03:00,
2013-04-06 05:13:00,49.0,42.0,-100.00,South,170,16.0,20.0,76,0.00,,,-99.99,,2013-04-06 10:13:00,
2013-04-06 05:23:00,49.0,42.0,-100.00,South,175,13.0,19.0,76,0.00,,,-99.99,,2013-04-06 10:23:00,
2013-04-06 05:33:00,49.0,42.0,-100.00,SSE,160,12.0,16.0,77,0.00,,,-99.99,,2013-04-06 10:33:00,
2013-04-06 05:42:00,48.0,42.0,-100.00,South,175,7.0,15.0,77,0.00,,,-99.99,,2013-04-06 10:42:00,
2013-04-06 05:52:00,48.0,42.0,-100.00,SSE,165,11.0,14.0,77,0.00,,,-99.99,,2013-04-06 10:52:00,
2013-04-06 06:02:00,48.0,42.0,-100.00,SSE,165,11.0,14.0,77,0.00,,,-99.99,,2013-04-06 11:02:00,
2013-04-06 06:12:00,48.0,42.0,-100.00,South,175,11.0,12.0,78,0.00,,,-99.99,,2013-04-06 11:12:00,
2013-04-06 06:22:00,49.0,42.0,-100.00,South,180,11.0,14.0,77,0.00,,,-99.99,,2013-04-06 11:22:00,
2013-04-06 06:33:00,48.0,41.0,-100.00,SSE,160,9.0,14.0,77,0.00,,,-99.99,,2013-04-06 11:33:00,
2013-04-06 06:43:00,47.0,41.0,-100.00,SSE,165,11.0,12.0,79,0.00,,,-99.99,,2013-04-06 11:43:00,
2013-04-06 06:52:00,47.0,41.0,-100.00,South,170,11.0,13.0,79,0.00,,,-99.99,,2013-04-06 11:52:00,
2013-04-06 07:02:00,47.0,41.0,-100.00,South,170,12.0,14.0,79,0.00,,,-99.99,,2013-04-06 12:02:00,
2013-04-06 07:12:00,46.0,41.0,-100.00,SSE,165,11.0,12.0,81,0.00,,,-99.99,,2013-04-06 12:12:00,
2013-04-06 07:22:00,46.0,41.0,-100.00,SSE,165,11.0,12.0,81,0.00,,,-99.99,,2013-04-06 12:22:00,
2013-04-06 07:32:00,46.0,41.0,-100.00,SSE,165,11.0,12.0,81,0.00,,,-99.99,,2013-04-06 12:32:00,
2013-04-06 07:43:00,45.0,41.0,-100.00,SSE,165,10.0,12.0,84,0.00,,,-99.99,,2013-04-06 12:43:00,
2013-04-06 07:52:00,46.0,42.0,-100.00,SSE,165,11.0,12.0,84,0.00,,,-99.99,,2013-04-06 12:52:00,
2013-04-06 08:03:00,48.0,43.0,-100.00,South,175,10.0,13.0,84,0.00,,,-99.99,,2013-04-06 13:03:00,
2013-04-06 08:13:00,49.0,44.0,-100.00,South,180,12.0,16.0,81,0.00,,,-99.99,,2013-04-06 13:13:00,
2013-04-06 08:23:00,50.0,44.0,-100.00,South,190,14.0,17.0,78,0.00,,,-99.99,,2013-04-06 13:23:00,
2013-04-06 08:32:00,51.0,44.0,-100.00,South,185,15.0,19.0,76,0.00,,,-99.99,,2013-04-06 13:32:00,
2013-04-06 08:43:00,51.0,44.0,-100.00,South,185,15.0,19.0,76,0.00,,,-99.99,,2013-04-06 13:43:00,
2013-04-06 08:52:00,51.0,44.0,-100.00,South,185,15.0,19.0,76,0.00,,,-99.99,,2013-04-06 13:52:00,
2013-04-06 09:04:00,52.0,44.0,-100.00,South,190,15.0,21.0,74,0.00,,,-99.99,,2013-04-06 14:04:00,
2013-04-06 09:12:00,53.0,45.0,-100.00,SSW,195,16.0,21.0,74,0.00,,,-99.99,,2013-04-06 14:12:00,
2013-04-06 09:22:00,53.0,45.0,-100.00,SSW,195,16.0,21.0,74,0.00,,,-99.99,,2013-04-06 14:22:00,
2013-04-06 09:33:00,53.0,45.0,-100.00,SSW,195,16.0,21.0,74,0.00,,,-99.99,,2013-04-06 14:33:00,
2013-04-06 09:42:00,55.0,45.0,-100.00,SSW,210,21.0,27.0,70,0.00,,,-99.99,,2013-04-06 14:42:00,
2013-04-06 09:52:00,55.0,45.0,-100.00,SW,215,22.0,27.0,69,0.00,,,-99.99,,2013-04-06 14:52:00,
2013-04-06 10:02:00,55.0,45.0,-100.00,SW,215,22.0,27.0,69,0.00,,,-99.99,,2013-04-06 15:02:00,
2013-04-06 10:12:00,55.0,45.0,-100.00,SW,215,22.0,27.0,69,0.00,,,-99.99,,2013-04-06 15:12:00,
2013-04-06 10:22:00,55.0,46.0,-100.00,SW,230,17.0,23.0,70,0.00,,,-99.99,,2013-04-06 15:22:00,
2013-04-06 10:33:00,58.0,47.0,-100.00,SW,230,20.0,24.0,68,0.00,,,-99.99,,2013-04-06 15:33:00,
2013-04-06 10:43:00,58.0,47.0,-100.00,SW,230,20.0,24.0,68,0.00,,,-99.99,,2013-04-06 15:43:00,
2013-04-06 10:53:00,58.0,47.0,-100.00,SW,230,20.0,24.0,68,0.00,,,-99.99,,2013-04-06 15:53:00,
2013-04-06 11:05:00,55.0,45.0,-100.00,WSW,250,19.0,27.0,69,0.00,,,-99.99,,2013-04-06 16:05:00,
2013-04-06 11:17:00,52.0,43.0,-100.00,West,265,20.0,26.0,69,0.00,,,-99.99,,2013-04-06 16:17:00,
2013-04-06 11:23:00,51.0,41.0,-100.00,West,280,18.0,24.0,69,0.00,,,-99.99,,2013-04-06 16:23:00,
2013-04-06 11:33:00,49.0,40.0,-100.00,West,275,21.0,26.0,69,0.00,,,-99.99,,2013-04-06 16:33:00,
2013-04-06 11:42:00,49.0,39.0,-100.00,West,270,17.0,22.0,70,0.27,,,-99.99,,2013-04-06 16:42:00,
2013-04-06 11:52:00,48.0,39.0,-100.00,West,275,22.0,26.0,71,0.00,,,-99.99,,2013-04-06 16:52:00,
2013-04-06 12:02:00,48.0,39.0,-100.00,West,275,22.0,26.0,71,0.00,,,-99.99,,2013-04-06 17:02:00,
2013-04-06 12:12:00,48.0,39.0,-100.00,West,275,22.0,26.0,71,0.00,,,-99.99,,2013-04-06 17:12:00,
2013-04-06 12:22:00,47.0,39.0,-100.00,WNW,295,18.0,24.0,73,0.08,,,-99.99,,2013-04-06 17:22:00,
2013-04-06 12:32:00,47.0,39.0,-100.00,WNW,295,17.0,22.0,74,0.33,,,-99.99,,2013-04-06 17:32:00,
2013-04-06 12:43:00,47.0,39.0,-100.00,WNW,295,17.0,22.0,74,0.33,,,-99.99,,2013-04-06 17:43:00,
2013-04-06 12:52:00,47.0,40.0,-100.00,WNW,290,12.0,19.0,76,0.00,,,-99.99,,2013-04-06 17:52:00,
2013-04-06 13:03:00,46.0,40.0,-100.00,West,270,11.0,16.0,78,0.18,,,-99.99,,2013-04-06 18:03:00,
2013-04-06 13:12:00,46.0,40.0,-100.00,West,270,11.0,16.0,78,0.18,,,-99.99,,2013-04-06 18:12:00,
2013-04-06 13:23:00,45.0,41.0,-100.00,West,275,14.0,17.0,86,0.35,,,-99.99,,2013-04-06 18:23:00,
2013-04-06 13:32:00,44.0,41.0,-100.00,West,280,16.0,24.0,90,0.40,,,-99.99,,2013-04-06 18:32:00,
2013-04-06 13:42:00,44.0,41.0,-100.00,West,280,16.0,18.0,91,0.00,,,-99.99,,2013-04-06 18:42:00,
2013-04-06 13:52:00,45.0,43.0,-100.00,WNW,285,19.0,22.0,91,0.00,,,-99.99,,2013-04-06 18:52:00,
2013-04-06 14:02:00,46.0,44.0,-100.00,West,280,24.0,27.0,91,0.00,,,-99.99,,2013-04-06 19:02:00,
2013-04-06 14:12:00,46.0,44.0,-100.00,West,280,22.0,28.0,91,0.00,,,-99.99,,2013-04-06 19:12:00,
2013-04-06 14:22:00,45.0,43.0,-100.00,West,280,21.0,27.0,91,0.00,,,-99.99,,2013-04-06 19:22:00,
2013-04-06 14:32:00,46.0,44.0,-100.00,WNW,285,19.0,26.0,91,0.00,,,-99.99,,2013-04-06 19:32:00,
2013-04-06 14:42:00,48.0,45.0,-100.00,WNW,290,18.0,24.0,90,0.00,,,-99.99,,2013-04-06 19:42:00,
2013-04-06 14:52:00,47.0,44.0,-100.00,WNW,290,16.0,21.0,90,0.00,,,-99.99,,2013-04-06 19:52:00,
2013-04-06 15:03:00,47.0,44.0,-100.00,WNW,295,15.0,19.0,90,0.00,,,-99.99,,2013-04-06 20:03:00,
2013-04-06 15:12:00,47.0,45.0,-100.00,WNW,300,15.0,19.0,90,0.00,,,-99.99,,2013-04-06 20:12:00,
2013-04-06 15:22:00,48.0,45.0,-100.00,WNW,295,16.0,19.0,88,0.00,,,-99.99,,2013-04-06 20:22:00,
2013-04-06 15:32:00,48.0,45.0,-100.00,WNW,295,16.0,19.0,88,0.00,,,-99.99,,2013-04-06 20:32:00,
2013-04-06 15:42:00,50.0,46.0,-100.00,WNW,295,15.0,18.0,85,0.00,,,-99.99,,2013-04-06 20:42:00,
2013-04-06 15:52:00,51.0,46.0,-100.00,NW,315,13.0,19.0,81,0.00,,,-99.99,,2013-04-06 20:52:00,
2013-04-06 16:02:00,55.0,46.0,-100.00,NW,315,19.0,26.0,73,0.00,,,-99.99,,2013-04-06 21:02:00,
2013-04-06 16:13:00,55.0,46.0,-100.00,NW,315,19.0,26.0,73,0.00,,,-99.99,,2013-04-06 21:13:00,
2013-04-06 16:22:00,56.0,45.0,-100.00,NW,310,21.0,26.0,66,0.00,,,-99.99,,2013-04-06 21:22:00,
2013-04-06 16:33:00,56.0,45.0,-100.00,NW,315,18.0,27.0,65,0.00,,,-99.99,,2013-04-06 21:33:00,
2013-04-06 16:43:00,56.0,45.0,-100.00,NW,315,18.0,27.0,65,0.00,,,-99.99,,2013-04-06 21:43:00,
2013-04-06 16:53:00,56.0,45.0,-100.00,NW,315,18.0,27.0,65,0.00,,,-99.99,,2013-04-06 21:53:00,
2013-04-06 17:03:00,58.0,45.0,-100.00,NW,305,21.0,24.0,60,0.00,,,-99.99,,2013-04-06 22:03:00,
2013-04-06 17:13:00,58.0,44.0,-100.00,NW,315,22.0,29.0,58,0.00,,,-99.99,,2013-04-06 22:13:00,
2013-04-06 17:23:00,58.0,43.0,-100.00,NW,315,21.0,28.0,57,0.00,,,-99.99,,2013-04-06 22:23:00,
2013-04-06 17:34:00,58.0,43.0,-100.00,NW,320,18.0,25.0,57,0.00,,,-99.99,,2013-04-06 22:34:00,
2013-04-06 17:43:00,58.0,43.0,-100.00,NW,320,18.0,25.0,57,0.00,,,-99.99,,2013-04-06 22:43:00,
2013-04-06 17:53:00,59.0,44.0,-100.00,NNW,335,15.0,22.0,56,0.00,,,-99.99,,2013-04-06 22:53:00,
2013-04-06 18:03:00,59.0,44.0,-100.00,NW,320,17.0,24.0,56,0.00,,,-99.99,,2013-04-06 23:03:00,
2013-04-06 18:13:00,59.0,44.0,-100.00,NNW,330,16.0,21.0,56,0.00,,,-99.99,,2013-04-06 23:13:00,
2013-04-06 18:23:00,60.0,44.0,-100.00,NNW,330,16.0,22.0,55,0.00,,,-99.99,,2013-04-06 23:23:00,
2013-04-06 18:34:00,60.0,44.0,-100.00,NNW,335,17.0,21.0,55,0.00,,,-99.99,,2013-04-06 23:34:00,
2013-04-06 18:42:00,60.0,44.0,-100.00,NW,325,16.0,19.0,55,0.00,,,-99.99,,2013-04-06 23:42:00,
2013-04-06 18:52:00,59.0,44.0,-100.00,NW,325,16.0,21.0,56,0.00,,,-99.99,,2013-04-06 23:52:00,
2013-04-06 19:02:00,59.0,43.0,-100.00,NNW,335,17.0,22.0,55,0.00,,,-99.99,,2013-04-07 00:02:00,
2013-04-06 19:13:00,58.0,42.0,-100.00,NNW,330,15.0,19.0,56,0.00,,,-99.99,,2013-04-07 00:13:00,
2013-04-06 19:22:00,57.0,42.0,-100.00,NW,320,13.0,17.0,57,0.00,,,-99.99,,2013-04-07 00:22:00,
2013-04-06 19:32:00,56.0,42.0,-100.00,NW,320,12.0,17.0,59,0.00,,,-99.99,,2013-04-07 00:32:00,
2013-04-06 19:43:00,56.0,42.0,-100.00,NW,320,12.0,17.0,59,0.00,,,-99.99,,2013-04-07 00:43:00,
2013-04-06 19:52:00,54.0,42.0,-100.00,NNW,330,12.0,15.0,63,0.00,,,-99.99,,2013-04-07 00:52:00,
2013-04-06 20:02:00,53.0,41.0,-100.00,NNW,330,14.0,16.0,63,0.00,,,-99.99,,2013-04-07 01:02:00,
2013-04-06 20:12:00,53.0,41.0,-100.00,NNW,330,14.0,16.0,63,0.00,,,-99.99,,2013-04-07 01:12:00,
2013-04-06 20:22:00,50.0,41.0,-100.00,North,355,9.0,12.0,71,0.00,,,-99.99,,2013-04-07 01:22:00,
2013-04-06 20:32:00,50.0,42.0,-100.00,North,5,10.0,12.0,73,0.00,,,-99.99,,2013-04-07 01:32:00,
2013-04-06 20:43:00,50.0,42.0,-100.00,North,5,10.0,12.0,73,0.00,,,-99.99,,2013-04-07 01:43:00,
2013-04-06 20:53:00,49.0,41.0,-100.00,North,0,9.0,14.0,73,0.00,,,-99.99,,2013-04-07 01:53:00,
2013-04-06 21:03:00,49.0,41.0,-100.00,North,0,9.0,14.0,73,0.00,,,-99.99,,2013-04-07 02:03:00,
2013-04-06 21:12:00,46.0,40.0,-100.00,NNW,330,4.0,6.0,77,0.00,,,-99.99,,2013-04-07 02:12:00,
2013-04-06 21:23:00,45.0,39.0,-100.00,NNW,335,5.0,6.0,80,0.00,,,-99.99,,2013-04-07 02:23:00,
2013-04-06 21:32:00,44.0,39.0,-100.00,NNW,335,5.0,6.0,82,0.00,,,-99.99,,2013-04-07 02:32:00,
2013-04-06 21:43:00,44.0,39.0,-100.00,NNW,335,5.0,6.0,82,0.00,,,-99.99,,2013-04-07 02:43:00,
2013-04-06 21:52:00,42.0,38.0,-100.00,NNW,335,2.0,3.0,85,0.00,,,-99.99,,2013-04-07 02:52:00,
2013-04-06 22:02:00,42.0,38.0,-100.00,NNW,335,2.0,3.0,85,0.00,,,-99.99,,2013-04-07 03:02:00,
2013-04-06 22:12:00,41.0,38.0,-100.00,NW,320,3.0,3.0,88,0.00,,,-99.99,,2013-04-07 03:12:00,
2013-04-06 22:22:00,41.0,38.0,-100.00,NW,320,3.0,3.0,88,0.00,,,-99.99,,2013-04-07 03:22:00,
2013-04-06 22:34:00,39.0,37.0,-100.00,North,350,4.0,6.0,90,0.00,,,-99.99,,2013-04-07 03:34:00,
2013-04-06 22:43:00,39.0,36.0,-100.00,North,350,4.0,6.0,91,0.00,,,-99.99,,2013-04-07 03:43:00,
2013-04-06 22:53:00,38.0,36.0,-100.00,North,355,6.0,7.0,92,0.00,,,-99.99,,2013-04-07 03:53:00,
2013-04-06 23:03:00,37.0,35.0,-100.00,North,350,4.0,7.0,92,0.00,,,-99.99,,2013-04-07 04:03:00,
2013-04-06 23:14:00,37.0,35.0,-100.00,North,350,4.0,7.0,92,0.00,,,-99.99,,2013-04-07 04:14:00,
2013-04-06 23:23:00,37.0,35.0,-100.00,NNW,335,3.0,4.0,93,0.00,,,-99.99,,2013-04-07 04:23:00,
2013-04-06 23:32:00,36.0,35.0,-100.00,North,355,7.0,7.0,93,0.00,,,-99.99,,2013-04-07 04:32:00,
2013-04-06 23:43:00,36.0,35.0,-100.00,North,355,7.0,7.0,93,0.00,,,-99.99,,2013-04-07 04:43:00,
2013-04-06 23:53:00,37.0,36.0,-100.00,North,355,6.0,11.0,94,0.00,,,-99.99,,2013-04-07 04:53:00,